Liberty Clipper — WDE9221 — position and weather

sailwx.info

Track history (hours):
 
Tides and Currents Weather Stations Pressure Air Temp Water Temp Dewpoint Dewpoint Depression Visibility Wind Speed Wind Dir Waves Ship Positions

Liberty Clipper

Owner: Schooner Liberty Clipper, Inc., Wellesley, MA. More information available from US FCC via Universal Licensing System and Coast Guard Vessel Documentation Center.

Last reported at 2017-Oct-17 17:53 UTC. Time now 2017-Dec-11 13:22 UTC.
Position N 36°51' W 075°56'.
Warning: this ship's position is 54 days out of date.

Length 30 m.

Type: Sailing vessel. MMSI: 367414870.

Date/timePositionNaut miles runAvg speedWind from/ knotsBaromVisibWave heightAir tempDewpointWater temp
2017-Oct-17 17:53N 36°51' W 075°56'2 5.3
2017-Oct-17 17:29N 36°53' W 075°57'3 5.3
2017-Oct-17 16:58N 36°55' W 075°59'2 4.4
2017-Oct-17 16:30N 36°57' W 076°01'2 4.2
2017-Oct-17 16:00N 36°57' W 076°03'  
2017-Oct-14 13:38N 36°50' W 076°18'0 0.0
2017-Oct-14 13:20N 36°50' W 076°18'0 0.0
2017-Oct-14 02:50N 36°50' W 076°18'0 0.0
2017-Oct-13 22:38N 36°50' W 076°18'0 0.0
2017-Oct-13 22:26N 36°50' W 076°18'0 0.0
2017-Oct-13 16:35N 36°50' W 076°18'0 1.3
2017-Oct-13 16:29N 36°50' W 076°18'1 2.5
2017-Oct-13 15:58N 36°51' W 076°19'122 5.7
2017-Oct-12 18:35N 38°53' W 076°25'1 6.0
2017-Oct-12 18:26N 38°54' W 076°25'3 6.5
2017-Oct-12 18:00N 38°57' W 076°25'2 3.4
2017-Oct-12 17:30N 38°59' W 076°25'1 2.0
2017-Oct-12 17:00N 38°58' W 076°24'1 1.9
2017-Oct-12 16:30N 38°59' W 076°23'3 5.8
2017-Oct-12 16:00N 39°02' W 076°23'12 5.9
2017-Oct-12 13:54N 39°13' W 076°32'2 3.9
2017-Oct-12 13:26N 39°14' W 076°33'2 5.1
2017-Oct-12 13:00N 39°16' W 076°35'0 0.9
2017-Oct-12 12:30N 39°16' W 076°35'0 0.0
2017-Oct-12 11:54N 39°16' W 076°35'0 0.0
2017-Oct-12 11:30N 39°16' W 076°35'0 0.0
2017-Oct-12 11:00N 39°16' W 076°35'0 0.0
2017-Oct-12 10:30N 39°16' W 076°35'0 0.0
2017-Oct-12 10:00N 39°16' W 076°35'0 0.0
2017-Oct-12 09:30N 39°16' W 076°35'0 0.0
2017-Oct-12 09:00N 39°16' W 076°35'0 0.0
2017-Oct-12 08:30N 39°16' W 076°35'0 0.0
2017-Oct-12 08:00N 39°16' W 076°35'0 0.0
2017-Oct-12 07:30N 39°16' W 076°35'0 0.0
2017-Oct-12 07:00N 39°16' W 076°35'0 0.0
2017-Oct-12 06:30N 39°16' W 076°35'0 0.0
2017-Oct-12 06:00N 39°16' W 076°35'0 0.0
2017-Oct-12 05:30N 39°16' W 076°35'0 0.0
2017-Oct-12 05:00N 39°16' W 076°35'0 0.0
2017-Oct-12 04:30N 39°16' W 076°35'0 0.0
2017-Oct-12 04:00N 39°16' W 076°35'0 0.0
2017-Oct-12 03:30N 39°16' W 076°35'0 0.0
2017-Oct-12 03:00N 39°16' W 076°35'0 0.0
2017-Oct-12 02:30N 39°16' W 076°35'0 0.0
2017-Oct-12 02:00N 39°16' W 076°35'0 0.0
2017-Oct-12 01:30N 39°16' W 076°35'0 0.0
2017-Oct-12 01:00N 39°16' W 076°35'0 0.0
2017-Oct-12 00:30N 39°16' W 076°35'0 0.0
2017-Oct-12 00:00N 39°16' W 076°35'0 0.0
2017-Oct-11 23:30N 39°16' W 076°35'0 0.0
2017-Oct-11 23:00N 39°16' W 076°35'0 0.0
2017-Oct-11 22:30N 39°16' W 076°35'1 1.6
2017-Oct-11 22:00N 39°17' W 076°36'0 0.1
2017-Oct-11 21:28N 39°17' W 076°36'1 2.3
2017-Oct-11 21:00N 39°16' W 076°35'0 0.7
2017-Oct-11 20:29N 39°16' W 076°35'0 0.0
2017-Oct-11 19:59N 39°16' W 076°35'0 0.0
2017-Oct-11 19:29N 39°16' W 076°35'0 0.0
2017-Oct-11 18:59N 39°16' W 076°35'0 0.0
2017-Oct-11 18:29N 39°16' W 076°35'0 0.0
2017-Oct-11 17:59N 39°16' W 076°35'0 0.0
2017-Oct-11 17:29N 39°16' W 076°35'0 0.0
2017-Oct-11 16:59N 39°16' W 076°35'0 0.0
2017-Oct-10 23:59N 39°16' W 076°35'0 0.0
2017-Oct-10 23:29N 39°16' W 076°35'0 0.0
2017-Oct-10 22:59N 39°16' W 076°35'0 0.0
2017-Oct-10 22:29N 39°16' W 076°35'0 0.0
2017-Oct-10 21:59N 39°16' W 076°35'0 0.0
2017-Oct-10 21:29N 39°16' W 076°35'0 0.0
2017-Oct-10 20:59N 39°16' W 076°35'0 0.0
2017-Oct-10 20:29N 39°16' W 076°35'0 0.0
2017-Oct-10 19:59N 39°16' W 076°35'0 0.0
2017-Oct-10 19:29N 39°16' W 076°35'0 0.0
2017-Oct-10 18:59N 39°16' W 076°35'0 0.0
2017-Oct-10 18:29N 39°16' W 076°35'0 0.0
2017-Oct-10 17:59N 39°16' W 076°35'0 0.0
2017-Oct-10 17:29N 39°16' W 076°35'0 0.0
2017-Oct-10 16:59N 39°16' W 076°35'0 0.0
2017-Oct-10 16:29N 39°16' W 076°35'0 0.0
2017-Oct-10 15:59N 39°16' W 076°35'0 0.0
2017-Oct-10 15:30N 39°16' W 076°35'1 2.4
2017-Oct-10 15:00N 39°15' W 076°34'4 4.4
2017-Oct-10 14:00N 39°12' W 076°30'2 4.4
2017-Oct-10 13:30N 39°11' W 076°28'2 0.4
2017-Oct-10 09:43N 39°10' W 076°27'0 0.0
2017-Oct-10 09:13N 39°10' W 076°27'0 0.0
2017-Oct-10 08:52N 39°10' W 076°27'0 0.0
2017-Oct-10 07:58N 39°10' W 076°27'0 0.0
2017-Oct-10 07:28N 39°10' W 076°27'0 0.0
2017-Oct-10 06:58N 39°10' W 076°27'0 0.0
2017-Oct-10 06:28N 39°10' W 076°27'0 0.0
2017-Oct-10 05:58N 39°10' W 076°27'0 0.0
2017-Oct-10 05:28N 39°10' W 076°27'0 0.0
2017-Oct-10 04:58N 39°10' W 076°27'0 0.0
2017-Oct-10 04:28N 39°10' W 076°27'0 0.0
2017-Oct-10 03:55N 39°10' W 076°27'0 0.0
2017-Oct-10 03:28N 39°10' W 076°27'0 0.0
2017-Oct-10 02:52N 39°10' W 076°27'0 0.0
2017-Oct-10 02:13N 39°10' W 076°27'0 0.0
2017-Oct-10 01:58N 39°10' W 076°27'0 0.0
2017-Oct-10 00:05N 39°10' W 076°27'0 2.3
2017-Oct-10 00:00N 39°09' W 076°27'4 2.8
2017-Oct-09 22:25N 39°07' W 076°22'0 0.3
2017-Oct-09 21:15N 39°07' W 076°22'1 4.2
2017-Oct-09 20:58N 39°07' W 076°23'16 1.5
2017-Oct-09 10:37N 39°20' W 076°11'1 5.4
2017-Oct-09 10:28N 39°21' W 076°10'3 5.4
2017-Oct-09 10:00N 39°22' W 076°08'3 5.2
2017-Oct-09 09:28N 39°23' W 076°04'0 0.3
2017-Oct-09 08:57N 39°22' W 076°04'0 0.0
2017-Oct-09 08:30N 39°22' W 076°04'0 0.0
2017-Oct-09 07:57N 39°22' W 076°04'0 0.0
2017-Oct-09 07:30N 39°22' W 076°04'0 0.0
2017-Oct-09 06:51N 39°22' W 076°04'0 0.0
2017-Oct-09 06:30N 39°22' W 076°04'0 0.0
2017-Oct-09 05:45N 39°22' W 076°04'0 0.0
2017-Oct-09 05:21N 39°22' W 076°04'0 0.0
2017-Oct-09 04:57N 39°22' W 076°04'0 0.0
2017-Oct-09 04:27N 39°22' W 076°04'0 0.0
2017-Oct-09 03:06N 39°22' W 076°04'0 0.0
2017-Oct-09 03:00N 39°22' W 076°04'0 0.0
2017-Oct-08 22:27N 39°22' W 076°04'0 0.0
2017-Oct-08 20:15N 39°22' W 076°04'0 0.1
2017-Oct-08 20:00N 39°22' W 076°04'0 0.0
2017-Oct-08 19:24N 39°22' W 076°04'0 0.0
2017-Oct-08 19:00N 39°22' W 076°04'0 0.0
2017-Oct-08 18:27N 39°22' W 076°04'1 0.9
2017-Oct-08 17:15N 39°24' W 076°04'2 5.7
2017-Oct-08 16:56N 39°25' W 076°02'3 5.9
2017-Oct-08 16:30N 39°27' W 075°60'3 5.5
2017-Oct-08 16:00N 39°29' W 075°57'3 5.3
2017-Oct-08 15:30N 39°30' W 075°55'3 5.3
2017-Oct-08 15:00N 39°32' W 075°52'2 5.0
2017-Oct-08 14:30N 39°32' W 075°49'2 4.9
2017-Oct-08 14:00N 39°32' W 075°46'2 4.8
2017-Oct-08 13:30N 39°33' W 075°43'2 4.6
2017-Oct-08 13:00N 39°33' W 075°40'2 3.1
2017-Oct-08 12:30N 39°33' W 075°38'2 3.4
2017-Oct-08 12:00N 39°33' W 075°36'2 3.4
2017-Oct-08 11:30N 39°34' W 075°33'2 3.3
2017-Oct-08 11:00N 39°32' W 075°33'2 3.6
2017-Oct-08 10:30N 39°30' W 075°33'2 3.9
2017-Oct-08 10:00N 39°28' W 075°33'2 4.1
2017-Oct-08 09:30N 39°26' W 075°32'2 3.8
2017-Oct-08 09:00N 39°25' W 075°31'2 4.1
2017-Oct-08 08:30N 39°23' W 075°29'2 4.5
2017-Oct-08 08:00N 39°22' W 075°27'2 4.7
2017-Oct-08 07:30N 39°20' W 075°25'2 4.9
2017-Oct-08 07:00N 39°18' W 075°23'1 2.7
2017-Oct-08 06:30N 39°17' W 075°22'2 3.4
2017-Oct-08 06:00N 39°16' W 075°20'2 4.4
2017-Oct-08 05:30N 39°14' W 075°18'2 4.5
2017-Oct-08 05:00N 39°12' W 075°17'2 4.9
2017-Oct-08 04:30N 39°10' W 075°15'2 4.7
2017-Oct-08 04:00N 39°08' W 075°13'4 4.3
2017-Oct-08 03:04N 39°05' W 075°11'1 4.7
2017-Oct-08 02:54N 39°04' W 075°10'2 5.4
2017-Oct-08 02:29N 39°02' W 075°09'7 6.1
2017-Oct-08 01:24N 38°56' W 075°06'2 5.9
2017-Oct-08 01:00N 38°54' W 075°05'3 5.6
2017-Oct-08 00:29N 38°51' W 075°03'2 4.4
2017-Oct-08 00:00N 38°51' W 075°00'  
Track history (hours):
 
Tides and Currents Weather Stations Pressure Air Temp Water Temp Dewpoint Dewpoint Depression Visibility Wind Speed Wind Dir Waves Ship Positions

Liberty Clipper

Owner: Schooner Liberty Clipper, Inc., Wellesley, MA. More information available from US FCC via Universal Licensing System and Coast Guard Vessel Documentation Center.

Last reported at 2017-Oct-17 17:53 UTC. Time now 2017-Dec-11 13:22 UTC.
Position N 36°51' W 075°56'.
Warning: this ship's position is 54 days out of date.

Length 30 m.

Type: Sailing vessel. MMSI: 367414870.

Date/timePositionNaut miles runAvg speedWind from/ knotsBaromVisibWave heightAir tempDewpointWater temp
2017-Oct-17 17:53N 36°51' W 075°56'2 5.3
2017-Oct-17 17:29N 36°53' W 075°57'3 5.3
2017-Oct-17 16:58N 36°55' W 075°59'2 4.4
2017-Oct-17 16:30N 36°57' W 076°01'2 4.2
2017-Oct-17 16:00N 36°57' W 076°03'  
2017-Oct-14 13:38N 36°50' W 076°18'0 0.0
2017-Oct-14 13:20N 36°50' W 076°18'0 0.0
2017-Oct-14 02:50N 36°50' W 076°18'0 0.0
2017-Oct-13 22:38N 36°50' W 076°18'0 0.0
2017-Oct-13 22:26N 36°50' W 076°18'0 0.0
2017-Oct-13 16:35N 36°50' W 076°18'0 1.3
2017-Oct-13 16:29N 36°50' W 076°18'1 2.5
2017-Oct-13 15:58N 36°51' W 076°19'122 5.7
2017-Oct-12 18:35N 38°53' W 076°25'1 6.0
2017-Oct-12 18:26N 38°54' W 076°25'3 6.5
2017-Oct-12 18:00N 38°57' W 076°25'2 3.4
2017-Oct-12 17:30N 38°59' W 076°25'1 2.0
2017-Oct-12 17:00N 38°58' W 076°24'1 1.9
2017-Oct-12 16:30N 38°59' W 076°23'3 5.8
2017-Oct-12 16:00N 39°02' W 076°23'12 5.9
2017-Oct-12 13:54N 39°13' W 076°32'2 3.9
2017-Oct-12 13:26N 39°14' W 076°33'2 5.1
2017-Oct-12 13:00N 39°16' W 076°35'0 0.9
2017-Oct-12 12:30N 39°16' W 076°35'0 0.0
2017-Oct-12 11:54N 39°16' W 076°35'0 0.0
2017-Oct-12 11:30N 39°16' W 076°35'0 0.0
2017-Oct-12 11:00N 39°16' W 076°35'0 0.0
2017-Oct-12 10:30N 39°16' W 076°35'0 0.0
2017-Oct-12 10:00N 39°16' W 076°35'0 0.0
2017-Oct-12 09:30N 39°16' W 076°35'0 0.0
2017-Oct-12 09:00N 39°16' W 076°35'0 0.0
2017-Oct-12 08:30N 39°16' W 076°35'0 0.0
2017-Oct-12 08:00N 39°16' W 076°35'0 0.0
2017-Oct-12 07:30N 39°16' W 076°35'0 0.0
2017-Oct-12 07:00N 39°16' W 076°35'0 0.0
2017-Oct-12 06:30N 39°16' W 076°35'0 0.0
2017-Oct-12 06:00N 39°16' W 076°35'0 0.0
2017-Oct-12 05:30N 39°16' W 076°35'0 0.0
2017-Oct-12 05:00N 39°16' W 076°35'0 0.0
2017-Oct-12 04:30N 39°16' W 076°35'0 0.0
2017-Oct-12 04:00N 39°16' W 076°35'0 0.0
2017-Oct-12 03:30N 39°16' W 076°35'0 0.0
2017-Oct-12 03:00N 39°16' W 076°35'0 0.0
2017-Oct-12 02:30N 39°16' W 076°35'0 0.0
2017-Oct-12 02:00N 39°16' W 076°35'0 0.0
2017-Oct-12 01:30N 39°16' W 076°35'0 0.0
2017-Oct-12 01:00N 39°16' W 076°35'0 0.0
2017-Oct-12 00:30N 39°16' W 076°35'0 0.0
2017-Oct-12 00:00N 39°16' W 076°35'0 0.0
2017-Oct-11 23:30N 39°16' W 076°35'0 0.0
2017-Oct-11 23:00N 39°16' W 076°35'0 0.0
2017-Oct-11 22:30N 39°16' W 076°35'1 1.6
2017-Oct-11 22:00N 39°17' W 076°36'0 0.1
2017-Oct-11 21:28N 39°17' W 076°36'1 2.3
2017-Oct-11 21:00N 39°16' W 076°35'0 0.7
2017-Oct-11 20:29N 39°16' W 076°35'0 0.0
2017-Oct-11 19:59N 39°16' W 076°35'0 0.0
2017-Oct-11 19:29N 39°16' W 076°35'0 0.0
2017-Oct-11 18:59N 39°16' W 076°35'0 0.0
2017-Oct-11 18:29N 39°16' W 076°35'0 0.0
2017-Oct-11 17:59N 39°16' W 076°35'0 0.0
2017-Oct-11 17:29N 39°16' W 076°35'0 0.0
2017-Oct-11 16:59N 39°16' W 076°35'0 0.0
2017-Oct-10 23:59N 39°16' W 076°35'0 0.0
2017-Oct-10 23:29N 39°16' W 076°35'0 0.0
2017-Oct-10 22:59N 39°16' W 076°35'0 0.0
2017-Oct-10 22:29N 39°16' W 076°35'0 0.0
2017-Oct-10 21:59N 39°16' W 076°35'0 0.0
2017-Oct-10 21:29N 39°16' W 076°35'0 0.0
2017-Oct-10 20:59N 39°16' W 076°35'0 0.0
2017-Oct-10 20:29N 39°16' W 076°35'0 0.0
2017-Oct-10 19:59N 39°16' W 076°35'0 0.0
2017-Oct-10 19:29N 39°16' W 076°35'0 0.0
2017-Oct-10 18:59N 39°16' W 076°35'0 0.0
2017-Oct-10 18:29N 39°16' W 076°35'0 0.0
2017-Oct-10 17:59N 39°16' W 076°35'0 0.0
2017-Oct-10 17:29N 39°16' W 076°35'0 0.0
2017-Oct-10 16:59N 39°16' W 076°35'0 0.0
2017-Oct-10 16:29N 39°16' W 076°35'0 0.0
2017-Oct-10 15:59N 39°16' W 076°35'0 0.0
2017-Oct-10 15:30N 39°16' W 076°35'1 2.4
2017-Oct-10 15:00N 39°15' W 076°34'4 4.4
2017-Oct-10 14:00N 39°12' W 076°30'2 4.4
2017-Oct-10 13:30N 39°11' W 076°28'2 0.4
2017-Oct-10 09:43N 39°10' W 076°27'0 0.0
2017-Oct-10 09:13N 39°10' W 076°27'0 0.0
2017-Oct-10 08:52N 39°10' W 076°27'0 0.0
2017-Oct-10 07:58N 39°10' W 076°27'0 0.0
2017-Oct-10 07:28N 39°10' W 076°27'0 0.0
2017-Oct-10 06:58N 39°10' W 076°27'0 0.0
2017-Oct-10 06:28N 39°10' W 076°27'0 0.0
2017-Oct-10 05:58N 39°10' W 076°27'0 0.0
2017-Oct-10 05:28N 39°10' W 076°27'0 0.0
2017-Oct-10 04:58N 39°10' W 076°27'0 0.0
2017-Oct-10 04:28N 39°10' W 076°27'0 0.0
2017-Oct-10 03:55N 39°10' W 076°27'0 0.0
2017-Oct-10 03:28N 39°10' W 076°27'0 0.0
2017-Oct-10 02:52N 39°10' W 076°27'0 0.0
2017-Oct-10 02:13N 39°10' W 076°27'0 0.0
2017-Oct-10 01:58N 39°10' W 076°27'0 0.0
2017-Oct-10 00:05N 39°10' W 076°27'0 2.3
2017-Oct-10 00:00N 39°09' W 076°27'4 2.8
2017-Oct-09 22:25N 39°07' W 076°22'0 0.3
2017-Oct-09 21:15N 39°07' W 076°22'1 4.2
2017-Oct-09 20:58N 39°07' W 076°23'16 1.5
2017-Oct-09 10:37N 39°20' W 076°11'1 5.4
2017-Oct-09 10:28N 39°21' W 076°10'3 5.4
2017-Oct-09 10:00N 39°22' W 076°08'3 5.2
2017-Oct-09 09:28N 39°23' W 076°04'0 0.3
2017-Oct-09 08:57N 39°22' W 076°04'0 0.0
2017-Oct-09 08:30N 39°22' W 076°04'0 0.0
2017-Oct-09 07:57N 39°22' W 076°04'0 0.0
2017-Oct-09 07:30N 39°22' W 076°04'0 0.0
2017-Oct-09 06:51N 39°22' W 076°04'0 0.0
2017-Oct-09 06:30N 39°22' W 076°04'0 0.0
2017-Oct-09 05:45N 39°22' W 076°04'0 0.0
2017-Oct-09 05:21N 39°22' W 076°04'0 0.0
2017-Oct-09 04:57N 39°22' W 076°04'0 0.0
2017-Oct-09 04:27N 39°22' W 076°04'0 0.0
2017-Oct-09 03:06N 39°22' W 076°04'0 0.0
2017-Oct-09 03:00N 39°22' W 076°04'0 0.0
2017-Oct-08 22:27N 39°22' W 076°04'0 0.0
2017-Oct-08 20:15N 39°22' W 076°04'0 0.1
2017-Oct-08 20:00N 39°22' W 076°04'0 0.0
2017-Oct-08 19:24N 39°22' W 076°04'0 0.0
2017-Oct-08 19:00N 39°22' W 076°04'0 0.0
2017-Oct-08 18:27N 39°22' W 076°04'1 0.9
2017-Oct-08 17:15N 39°24' W 076°04'2 5.7
2017-Oct-08 16:56N 39°25' W 076°02'3 5.9
2017-Oct-08 16:30N 39°27' W 075°60'3 5.5
2017-Oct-08 16:00N 39°29' W 075°57'3 5.3
2017-Oct-08 15:30N 39°30' W 075°55'3 5.3
2017-Oct-08 15:00N 39°32' W 075°52'2 5.0
2017-Oct-08 14:30N 39°32' W 075°49'2 4.9
2017-Oct-08 14:00N 39°32' W 075°46'2 4.8
2017-Oct-08 13:30N 39°33' W 075°43'2 4.6
2017-Oct-08 13:00N 39°33' W 075°40'2 3.1
2017-Oct-08 12:30N 39°33' W 075°38'2 3.4
2017-Oct-08 12:00N 39°33' W 075°36'2 3.4
2017-Oct-08 11:30N 39°34' W 075°33'2 3.3
2017-Oct-08 11:00N 39°32' W 075°33'2 3.6
2017-Oct-08 10:30N 39°30' W 075°33'2 3.9
2017-Oct-08 10:00N 39°28' W 075°33'2 4.1
2017-Oct-08 09:30N 39°26' W 075°32'2 3.8
2017-Oct-08 09:00N 39°25' W 075°31'2 4.1
2017-Oct-08 08:30N 39°23' W 075°29'2 4.5
2017-Oct-08 08:00N 39°22' W 075°27'2 4.7
2017-Oct-08 07:30N 39°20' W 075°25'2 4.9
2017-Oct-08 07:00N 39°18' W 075°23'1 2.7
2017-Oct-08 06:30N 39°17' W 075°22'2 3.4
2017-Oct-08 06:00N 39°16' W 075°20'2 4.4
2017-Oct-08 05:30N 39°14' W 075°18'2 4.5
2017-Oct-08 05:00N 39°12' W 075°17'2 4.9
2017-Oct-08 04:30N 39°10' W 075°15'2 4.7
2017-Oct-08 04:00N 39°08' W 075°13'4 4.3
2017-Oct-08 03:04N 39°05' W 075°11'1 4.7
2017-Oct-08 02:54N 39°04' W 075°10'2 5.4
2017-Oct-08 02:29N 39°02' W 075°09'7 6.1
2017-Oct-08 01:24N 38°56' W 075°06'2 5.9
2017-Oct-08 01:00N 38°54' W 075°05'3 5.6
2017-Oct-08 00:29N 38°51' W 075°03'2 4.4
2017-Oct-08 00:00N 38°51' W 075°00'  

Dump ship's entire track history